createdAt,value
2019-04-16T00:00:11.882Z,-3.20
2019-04-16T00:02:41.343Z,-3.20
2019-04-16T00:05:10.288Z,-3.20
2019-04-16T00:07:41.029Z,-3.30
2019-04-16T00:13:12.825Z,-3.20
2019-04-16T00:15:41.302Z,-3.30
2019-04-16T00:18:07.227Z,-3.30
2019-04-16T00:20:36.832Z,-3.30
2019-04-16T00:23:02.487Z,-3.30
2019-04-16T00:25:29.301Z,-3.40
2019-04-16T00:27:59.586Z,-3.40
2019-04-16T00:30:23.567Z,-3.40
2019-04-16T00:32:51.235Z,-3.40
2019-04-16T00:35:18.874Z,-3.40
2019-04-16T00:37:45.568Z,-3.40
2019-04-16T00:40:12.422Z,-3.40
2019-04-16T00:42:40.604Z,-3.50
2019-04-16T00:45:07.350Z,-3.50
2019-04-16T00:47:34.119Z,-3.50
2019-04-16T00:50:00.844Z,-3.50
2019-04-16T00:52:28.344Z,-3.50
2019-04-16T00:54:55.072Z,-3.50
2019-04-16T00:57:21.759Z,-3.50
2019-04-16T00:59:48.457Z,-3.50
2019-04-16T01:02:15.151Z,-3.50
2019-04-16T01:04:41.879Z,-3.50
2019-04-16T01:07:08.625Z,-3.50
2019-04-16T01:09:35.345Z,-3.50
2019-04-16T01:12:02.046Z,-3.50
2019-04-16T01:14:28.765Z,-3.50
2019-04-16T01:16:56.222Z,-3.50
2019-04-16T01:19:23.698Z,-3.40
2019-04-16T01:21:51.149Z,-3.40
2019-04-16T01:24:20.281Z,-3.40
2019-04-16T01:26:45.459Z,-3.50
2019-04-16T01:29:13.812Z,-3.40
2019-04-16T01:31:46.236Z,-3.30
2019-04-16T01:34:23.784Z,-3.40
2019-04-16T01:36:57.360Z,-3.40
2019-04-16T01:39:26.618Z,-3.30
2019-04-16T01:41:53.402Z,-3.30
2019-04-16T01:44:20.084Z,-3.30
2019-04-16T01:46:47.579Z,-3.30
2019-04-16T01:49:14.260Z,-3.30
2019-04-16T01:51:44.707Z,-3.30
2019-04-16T01:54:08.558Z,-3.30
2019-04-16T01:56:35.992Z,-3.30
2019-04-16T01:59:05.478Z,-3.30
2019-04-16T02:01:30.319Z,-3.30
2019-04-16T02:03:57.051Z,-3.20
2019-04-16T02:06:26.051Z,-3.20
2019-04-16T02:08:51.314Z,-3.20
2019-04-16T02:11:18.079Z,-3.20
2019-04-16T02:13:46.162Z,-3.20
2019-04-16T02:16:12.487Z,-3.20
2019-04-16T02:18:39.113Z,-3.20
2019-04-16T02:21:09.561Z,-3.20
2019-04-16T02:23:33.347Z,-3.20
2019-04-16T02:26:00.817Z,-3.20
2019-04-16T02:28:29.060Z,-3.20
2019-04-16T02:30:55.974Z,-3.30
2019-04-16T02:33:22.701Z,-3.30
2019-04-16T02:35:49.411Z,-3.30
2019-04-16T02:38:16.928Z,-3.40
2019-04-16T02:40:47.423Z,-3.40
2019-04-16T02:43:10.487Z,-3.50
2019-04-16T02:45:37.214Z,-3.50
2019-04-16T02:48:03.933Z,-3.50
2019-04-16T02:53:34.608Z,-3.50
2019-04-16T02:56:01.468Z,-3.50
2019-04-16T02:58:34.016Z,-3.60
2019-04-16T03:00:55.043Z,-3.60
2019-04-16T03:03:27.745Z,-3.60
2019-04-16T03:05:54.504Z,-3.60
2019-04-16T03:08:22.038Z,-3.70
2019-04-16T03:10:48.769Z,-3.70
2019-04-16T03:13:15.663Z,-3.70
2019-04-16T03:15:48.395Z,-3.70
2019-04-16T03:18:16.179Z,-3.70
2019-04-16T03:20:42.003Z,-3.70
2019-04-16T03:23:09.509Z,-3.60
2019-04-16T03:25:36.234Z,-3.70
2019-04-16T03:28:03.702Z,-3.70
2019-04-16T03:30:30.506Z,-3.70
2019-04-16T03:32:57.989Z,-3.50
2019-04-16T03:35:26.705Z,-3.50
2019-04-16T03:37:52.568Z,-3.50
2019-04-16T03:40:24.617Z,-3.50
2019-04-16T03:42:46.903Z,-3.50
2019-04-16T03:45:13.661Z,-3.50
2019-04-16T03:47:40.399Z,-3.50
2019-04-16T03:50:07.175Z,-3.40
2019-04-16T03:52:33.885Z,-3.40
2019-04-16T03:55:00.666Z,-3.30
2019-04-16T03:57:27.392Z,-3.20
2019-04-16T03:59:54.056Z,-3.10
2019-04-16T04:02:22.803Z,-3.00
2019-04-16T04:04:47.593Z,-2.90
2019-04-16T04:07:14.377Z,-2.90
2019-04-16T04:09:41.841Z,-2.70
2019-04-16T04:12:09.656Z,-2.60
2019-04-16T04:14:36.084Z,-2.60
2019-04-16T04:17:06.565Z,-2.60
2019-04-16T04:19:29.555Z,-2.50
2019-04-16T04:21:56.384Z,-2.40
2019-04-16T04:24:23.146Z,-2.40
2019-04-16T10:20:17.914Z,14.60
2019-04-16T10:22:45.369Z,14.20
2019-04-16T10:25:13.129Z,14.20
2019-04-16T10:27:40.697Z,14.50
2019-04-16T10:30:08.398Z,13.70
2019-04-16T10:32:35.096Z,13.70
2019-04-16T10:35:02.862Z,13.80
2019-04-16T10:37:29.692Z,13.70
2019-04-16T10:39:57.519Z,13.70
2019-04-16T10:45:22.571Z,13.20
2019-04-16T10:48:02.236Z,13.50
2019-04-16T10:50:32.875Z,13.60
2019-04-16T10:53:02.452Z,13.80
2019-04-16T10:55:35.182Z,14.00
2019-04-16T11:00:57.136Z,13.80
2019-04-16T11:03:28.513Z,13.90
2019-04-16T11:06:02.598Z,13.90
2019-04-16T11:08:30.046Z,13.10
2019-04-16T11:10:57.464Z,13.20
2019-04-16T11:13:25.954Z,13.20
2019-04-16T11:15:52.738Z,13.40
2019-04-16T11:18:19.403Z,13.30
2019-04-16T11:20:46.908Z,14.10
2019-04-16T11:23:14.408Z,13.70
2019-04-16T11:25:41.101Z,13.70
2019-04-16T11:28:07.921Z,13.60
2019-04-16T11:30:35.479Z,13.80
2019-04-16T11:33:02.180Z,13.90
2019-04-16T11:35:28.963Z,14.10
2019-04-16T11:37:55.711Z,13.80
2019-04-16T11:40:22.366Z,13.40
2019-04-16T11:42:49.191Z,13.40
2019-04-16T11:45:16.210Z,13.30
2019-04-16T11:47:42.838Z,13.40
2019-04-16T11:50:09.729Z,13.50
2019-04-16T11:52:39.807Z,13.40
2019-04-16T11:55:03.912Z,13.10
2019-04-16T11:57:33.254Z,12.60
2019-04-16T12:00:06.617Z,13.00
2019-04-16T12:02:26.921Z,13.00
2019-04-16T12:05:12.422Z,13.00
2019-04-16T12:07:53.195Z,12.90
2019-04-16T12:13:13.962Z,12.90
2019-04-16T12:15:42.632Z,13.00
2019-04-16T12:18:24.217Z,13.30
2019-04-16T12:20:56.961Z,13.50
2019-04-16T12:23:40.371Z,13.20
2019-04-16T12:26:25.987Z,13.10
2019-04-16T12:29:08.314Z,13.10
2019-04-16T12:31:48.147Z,13.10
2019-04-16T12:34:15.742Z,13.20
2019-04-16T12:36:57.470Z,13.30
2019-04-16T12:39:30.473Z,13.70
2019-04-16T12:42:02.114Z,14.10
2019-04-16T12:44:45.304Z,14.30
2019-04-16T12:47:17.053Z,14.20
2019-04-16T12:49:47.717Z,14.20
2019-04-16T12:52:17.198Z,13.50
2019-04-16T12:54:41.224Z,13.60
2019-04-16T12:57:15.371Z,13.40
2019-04-16T12:59:40.244Z,13.30
2019-04-16T13:02:13.402Z,13.40
2019-04-16T13:04:40.059Z,13.50
2019-04-16T13:07:24.237Z,13.20
2019-04-16T13:09:56.841Z,13.20
2019-04-16T13:12:24.444Z,13.20
2019-04-16T13:15:00.615Z,12.90
2019-04-16T13:17:21.470Z,13.30
2019-04-16T13:19:50.202Z,13.30
2019-04-16T13:22:16.956Z,13.10
2019-04-16T13:24:43.681Z,13.20
2019-04-16T13:27:18.318Z,13.00
2019-04-16T13:29:45.793Z,12.90
2019-04-16T13:32:12.469Z,12.90
2019-04-16T13:34:39.180Z,13.10
2019-04-16T13:37:05.924Z,13.10
2019-04-16T13:39:32.734Z,12.90
2019-04-16T13:41:59.603Z,12.80
2019-04-16T13:44:29.151Z,12.80
2019-04-16T13:47:01.198Z,12.70
2019-04-16T13:49:24.481Z,13.00
2019-04-16T13:51:50.296Z,13.00
2019-04-16T13:57:17.076Z,12.90
2019-04-16T13:59:49.830Z,13.00
2019-04-16T14:02:18.729Z,12.90
2019-04-16T14:04:44.331Z,13.00
2019-04-16T14:07:11.088Z,13.00
2019-04-16T14:09:37.874Z,12.80
2019-04-16T14:12:04.635Z,12.60
2019-04-16T14:14:31.357Z,12.60
2019-04-16T14:17:08.269Z,12.80
2019-04-16T14:19:25.021Z,12.60
2019-04-16T14:21:52.478Z,12.50
2019-04-16T14:24:20.018Z,12.60
2019-04-16T14:26:47.516Z,12.60
2019-04-16T14:29:14.201Z,12.60
2019-04-16T14:31:41.688Z,12.80
2019-04-16T14:34:15.182Z,13.00
2019-04-16T14:36:41.977Z,12.90
2019-04-16T14:39:23.744Z,13.10
2019-04-16T14:41:50.461Z,13.00
2019-04-16T14:44:17.939Z,12.50
2019-04-16T14:46:44.692Z,12.50
2019-04-16T14:49:11.429Z,12.40
2019-04-16T14:51:38.189Z,12.50
2019-04-16T14:54:08.830Z,12.50
2019-04-16T14:56:35.577Z,12.40
2019-04-16T14:59:04.265Z,12.50
2019-04-16T15:01:34.855Z,12.50
2019-04-16T15:04:02.561Z,12.50
2019-04-16T15:06:30.366Z,12.60
2019-04-16T15:12:01.723Z,12.50
2019-04-16T15:14:28.558Z,12.50
2019-04-16T15:17:00.959Z,12.50
2019-04-16T15:19:28.747Z,12.50
2019-04-16T15:22:01.586Z,12.60
2019-04-16T15:24:29.136Z,12.50
2019-04-16T15:26:58.778Z,12.40
2019-04-16T15:29:28.521Z,12.30
2019-04-16T15:31:56.590Z,12.30
2019-04-16T15:34:23.382Z,12.20
2019-04-16T15:36:53.368Z,12.10
2019-04-16T15:39:17.731Z,12.10
2019-04-16T15:41:45.421Z,12.20
2019-04-16T15:44:27.057Z,12.10
2019-04-16T15:49:55.589Z,11.80
2019-04-16T15:52:24.786Z,11.90
2019-04-16T15:54:57.431Z,11.70
2019-04-16T15:57:30.287Z,11.80
2019-04-16T16:00:03.787Z,11.60
2019-04-16T16:02:36.675Z,11.60
2019-04-16T16:05:03.576Z,11.50
2019-04-16T16:07:30.416Z,11.40
2019-04-16T16:10:13.775Z,11.30
2019-04-16T16:12:39.054Z,11.10
2019-04-16T16:15:08.707Z,11.10
2019-04-16T16:17:32.947Z,11.10
2019-04-16T16:19:59.787Z,11.00
2019-04-16T16:22:26.526Z,11.00
2019-04-16T16:24:53.376Z,10.80
2019-04-16T16:27:20.267Z,10.80
2019-04-16T16:29:47.056Z,10.80
2019-04-16T16:32:14.002Z,10.70
2019-04-16T16:34:40.843Z,10.70
2019-04-16T16:37:07.788Z,10.70
2019-04-16T16:39:34.634Z,10.50
2019-04-16T16:42:01.476Z,10.50
2019-04-16T16:44:28.174Z,10.40
2019-04-16T16:46:58.556Z,10.30
2019-04-16T16:49:24.307Z,10.20
2019-04-16T16:51:51.858Z,10.20
2019-04-16T16:54:21.462Z,10.20
2019-04-16T16:59:40.505Z,10.10
2019-04-16T17:02:11.237Z,10.10
2019-04-16T17:04:38.154Z,10.00
2019-04-16T17:07:05.058Z,9.80
2019-04-16T17:09:31.875Z,9.80
2019-04-16T17:11:58.727Z,9.70
2019-04-16T17:14:25.571Z,9.70
2019-04-16T17:16:52.399Z,9.70
2019-04-16T17:19:19.140Z,9.60
2019-04-16T17:21:45.985Z,9.40
2019-04-16T17:24:12.926Z,9.40
2019-04-16T17:26:39.668Z,9.30
2019-04-16T17:29:06.681Z,9.10
2019-04-16T17:31:35.985Z,9.00
2019-04-16T17:34:01.023Z,8.70
2019-04-16T17:36:27.733Z,8.70
2019-04-16T17:38:54.502Z,8.50
2019-04-16T17:41:27.310Z,8.40
2019-04-16T17:44:03.088Z,8.30
2019-04-16T17:46:32.944Z,8.20
2019-04-16T17:49:05.633Z,8.00
2019-04-16T17:51:38.525Z,7.70
2019-04-16T17:54:22.148Z,7.50
2019-04-16T17:56:56.356Z,7.20
2019-04-16T17:59:29.260Z,7.00
2019-04-16T18:02:01.516Z,6.80
2019-04-16T18:04:44.897Z,6.70
2019-04-16T18:07:14.254Z,6.50
2019-04-16T18:09:43.041Z,6.30
2019-04-16T18:12:24.701Z,6.10
2019-04-16T18:14:56.397Z,5.90
2019-04-16T18:20:27.497Z,5.50
2019-04-16T18:23:11.912Z,5.30
2019-04-16T18:28:38.970Z,5.20
2019-04-16T18:31:11.740Z,5.10
2019-04-16T18:33:38.594Z,4.80
2019-04-16T18:36:08.202Z,4.80
2019-04-16T18:38:44.981Z,4.60
2019-04-16T18:41:14.811Z,4.50
2019-04-16T18:43:57.187Z,4.30
2019-04-16T18:46:26.909Z,4.30
2019-04-16T18:48:57.224Z,4.20
2019-04-16T18:51:24.008Z,4.10
2019-04-16T18:53:50.820Z,4.10
2019-04-16T18:56:17.659Z,4.00
2019-04-16T18:58:44.507Z,3.80
2019-04-16T19:01:12.166Z,3.50
2019-04-16T19:03:39.009Z,3.40
2019-04-16T19:06:05.825Z,3.30
2019-04-16T19:08:41.494Z,3.10
2019-04-16T19:10:59.599Z,3.00
2019-04-16T19:13:26.381Z,3.00
2019-04-16T19:15:53.325Z,2.90
2019-04-16T19:18:20.485Z,2.80
2019-04-16T19:20:51.575Z,2.70
2019-04-16T19:23:13.749Z,2.70
2019-04-16T19:25:40.521Z,2.60
2019-04-16T19:28:07.231Z,2.50
2019-04-16T19:30:33.974Z,2.50
2019-04-16T19:33:01.964Z,2.40
2019-04-16T19:35:27.664Z,2.30
2019-04-16T19:37:54.671Z,2.20
2019-04-16T19:40:21.445Z,2.10
2019-04-16T19:42:48.288Z,2.00
2019-04-16T19:45:15.027Z,1.90
2019-04-16T19:47:41.870Z,1.90
2019-04-16T19:50:08.717Z,1.80
2019-04-16T19:52:35.457Z,1.70
2019-04-16T19:55:02.399Z,1.60
2019-04-16T19:57:29.243Z,1.50
2019-04-16T19:59:56.087Z,1.50
2019-04-16T20:02:22.828Z,1.40
2019-04-16T20:04:50.909Z,1.40
2019-04-16T20:07:16.410Z,1.30
2019-04-16T20:09:43.257Z,1.10
2019-04-16T20:12:09.996Z,1.10
2019-04-16T20:14:36.707Z,1.10
2019-04-16T20:17:03.381Z,1.00
2019-04-16T20:19:30.130Z,1.00
2019-04-16T20:21:56.906Z,1.00
2019-04-16T20:24:23.593Z,0.90
2019-04-16T20:26:50.278Z,0.90
2019-04-16T20:29:16.975Z,0.80
2019-04-16T20:31:43.728Z,0.80
2019-04-16T20:34:12.414Z,0.70
2019-04-16T20:36:37.923Z,0.70
2019-04-16T20:39:04.813Z,0.60
2019-04-16T20:41:31.452Z,0.60
2019-04-16T20:43:58.228Z,0.50
2019-04-16T20:46:25.094Z,0.40
2019-04-16T20:49:06.543Z,0.40
2019-04-16T20:51:18.993Z,0.30
2019-04-16T20:53:46.006Z,0.30
2019-04-16T20:56:13.020Z,0.30
2019-04-16T20:58:40.174Z,0.30
2019-04-16T21:01:07.455Z,0.20
2019-04-16T21:03:34.369Z,0.20
2019-04-16T21:06:07.166Z,0.20
2019-04-16T21:08:29.397Z,0.10
2019-04-16T21:10:58.932Z,0.10
2019-04-16T21:13:23.020Z,0.00
2019-04-16T21:15:49.702Z,0.00
2019-04-16T21:18:17.194Z,-0.20
2019-04-16T21:20:44.009Z,-0.20
2019-04-16T21:23:11.440Z,-0.20
2019-04-16T21:25:38.126Z,-0.20
2019-04-16T21:28:10.989Z,-0.20
2019-04-16T21:30:42.910Z,-0.30
2019-04-16T21:33:07.049Z,-0.30
2019-04-16T21:35:36.689Z,-0.30
2019-04-16T21:38:19.256Z,-0.40
2019-04-16T21:40:46.697Z,-0.40
2019-04-16T21:43:14.186Z,-0.40
2019-04-16T21:45:40.925Z,-0.40
2019-04-16T21:48:07.790Z,-0.50
2019-04-16T21:50:34.531Z,-0.40
2019-04-16T21:53:01.292Z,-0.40
2019-04-16T21:55:28.096Z,-0.50
2019-04-16T21:57:54.823Z,-0.50
2019-04-16T22:00:24.423Z,-0.50
2019-04-16T22:02:51.144Z,-0.60
2019-04-16T22:05:18.586Z,-0.60
2019-04-16T22:07:45.339Z,-0.60
2019-04-16T22:10:12.775Z,-0.60
2019-04-16T22:12:39.477Z,-0.60
2019-04-16T22:15:06.237Z,-0.60
2019-04-16T22:17:35.786Z,-0.70
2019-04-16T22:20:03.721Z,-0.70
2019-04-16T22:22:28.200Z,-0.80
2019-04-16T22:24:55.678Z,-0.80
2019-04-16T22:27:21.526Z,-0.90
2019-04-16T22:29:48.303Z,-1.00
2019-04-16T22:32:15.764Z,-1.00
2019-04-16T22:34:42.448Z,-1.00
2019-04-16T22:37:10.072Z,-1.10
2019-04-16T22:39:40.550Z,-1.10
2019-04-16T22:42:17.965Z,-1.20
2019-04-16T22:44:51.690Z,-1.20
2019-04-16T22:47:20.061Z,-1.30
2019-04-16T22:49:46.773Z,-1.40
2019-04-16T22:52:14.224Z,-1.30
2019-04-16T22:54:41.693Z,-1.40
2019-04-16T22:57:08.709Z,-1.40
2019-04-16T22:59:39.077Z,-1.50
2019-04-16T23:02:02.797Z,-1.50
2019-04-16T23:04:29.586Z,-1.50
2019-04-16T23:06:56.402Z,-1.50
2019-04-16T23:09:23.100Z,-1.50
2019-04-16T23:11:52.736Z,-1.50
2019-04-16T23:14:16.505Z,-1.50
2019-04-16T23:16:43.202Z,-1.50
2019-04-16T23:19:09.908Z,-1.60
2019-04-16T23:21:36.604Z,-1.70
2019-04-16T23:24:03.336Z,-1.70
2019-04-16T23:26:33.042Z,-1.70
2019-04-16T23:28:57.527Z,-1.70
2019-04-16T23:31:24.232Z,-1.70
2019-04-16T23:33:51.659Z,-1.70
2019-04-16T23:36:18.388Z,-1.80
2019-04-16T23:38:45.168Z,-1.80
2019-04-16T23:41:16.095Z,-1.80
2019-04-16T23:43:44.403Z,-1.80
2019-04-16T23:49:09.551Z,-1.80
2019-04-16T23:54:40.671Z,-1.90
2019-04-16T23:57:08.171Z,-1.90
